Time;durP1;ratioP1;P1;durP2;ratioP2;P2;SDS_P1;SDS_P2;PMS_P1;PMS_P2;Temp;Humidity;BMP_temperature;BMP_pressure;BME280_temperature;BME280_humidity;BME280_pressure;Samples;Min_cycle;Max_cycle;Signal;HPM_P1;HPM_P2
2022/10/07 00:07:36;;;;;;;9.63;1.93;;;;;;;10.97;94.37;102490.19;20974589;28;20316;-63
2022/10/07 00:17:57;;;;;;;8.48;1.70;;;;;;;10.94;94.88;102479.88;20971803;28;20044;-62
2022/10/07 00:28:19;;;;;;;7.68;1.98;;;;;;;10.81;94.54;102457.78;20971377;28;20567;-62
2022/10/07 00:38:41;;;;;;;9.77;2.60;;;;;;;10.87;95.02;102452.31;20973879;28;20044;-62
2022/10/07 00:49:09;;;;;;;10.35;2.20;;;;;;;10.84;94.77;102448.09;21002487;28;20374;-63
2022/10/07 00:59:32;;;;;;;12.32;2.83;;;;;;;10.94;94.67;102433.75;20947147;28;20040;-62
2022/10/07 01:09:58;;;;;;;11.07;2.65;;;;;;;10.76;93.10;102413.66;20968644;28;20681;-63
2022/10/07 01:20:43;;;;;;;12.65;3.22;;;;;;;10.75;94.12;102414.56;20987217;28;20047;-63
2022/10/07 01:31:09;;;;;;;14.02;2.90;;;;;;;10.57;93.98;102397.00;20994038;28;20062;-63
2022/10/07 01:41:31;;;;;;;11.60;3.17;;;;;;;10.54;95.39;102386.69;20969637;28;20052;-63
2022/10/07 01:52:23;;;;;;;7.05;2.78;;;;;;;10.46;93.41;102366.22;20978969;28;20040;-63
2022/10/07 02:02:47;;;;;;;10.57;3.38;;;;;;;10.43;94.07;102342.88;20951784;28;20045;-61
2022/10/07 02:13:27;;;;;;;13.18;2.40;;;;;;;10.52;93.05;102334.66;20976413;28;20094;-62
2022/10/07 02:23:53;;;;;;;7.13;2.37;;;;;;;10.41;93.25;102323.84;20984184;28;20051;-63
2022/10/07 02:34:18;;;;;;;10.00;2.38;;;;;;;10.35;92.53;102313.63;20974618;28;20056;-62
2022/10/07 02:45:03;;;;;;;4.75;2.00;;;;;;;10.45;91.58;102300.19;20982229;28;20109;-62
2022/10/07 02:55:26;;;;;;;13.75;2.10;;;;;;;10.45;92.98;102291.53;20973730;28;20078;-62
2022/10/07 03:05:48;;;;;;;8.90;1.80;;;;;;;10.47;91.56;102292.31;20974245;28;20083;-62
2022/10/07 03:16:09;;;;;;;;;;;;;;;10.54;91.61;102284.19;20961181;28;20036;-62
2022/10/07 03:26:32;;;;;;;7.20;1.97;;;;;;;10.50;91.15;102271.31;20976993;28;19967;-62
2022/10/07 03:36:54;;;;;;;9.98;1.90;;;;;;;10.49;92.21;102256.56;20970645;28;20053;-62
2022/10/07 03:47:16;;;;;;;;;;;;;;;10.34;91.58;102247.66;20969214;28;20052;-62
2022/10/07 03:57:50;;;;;;;4.65;1.63;;;;;;;10.30;93.27;102234.81;20971393;28;19924;-61
2022/10/07 04:08:17;;;;;;;11.38;2.50;;;;;;;10.20;93.54;102228.25;20965983;28;20040;-62
2022/10/07 04:18:42;;;;;;;6.80;1.90;;;;;;;10.12;93.38;102209.50;20962450;28;20543;-62
2022/10/07 04:29:03;;;;;;;5.90;1.85;;;;;;;10.17;93.64;102203.19;20967242;28;20053;-62
2022/10/07 04:39:25;;;;;;;8.00;1.80;;;;;;;10.12;94.92;102199.06;20957111;28;20470;-61
2022/10/07 04:50:07;;;;;;;8.55;2.63;;;;;;;10.15;94.38;102194.56;20977580;28;20072;-62
2022/10/07 05:00:28;;;;;;;12.35;2.67;;;;;;;10.09;94.88;102183.56;20967108;28;20049;-62
2022/10/07 05:10:55;;;;;;;12.87;2.30;;;;;;;10.01;94.49;102180.44;20962945;28;20047;-62
2022/10/07 05:21:16;;;;;;;12.05;2.83;;;;;;;10.12;95.39;102171.25;20981639;28;20279;-61
2022/10/07 05:31:38;;;;;;;10.87;3.10;;;;;;;10.28;94.93;102176.69;20966297;28;20036;-62
2022/10/07 05:42:00;;;;;;;13.90;3.25;;;;;;;10.18;94.71;102167.56;20970938;28;20143;-62
2022/10/07 05:52:22;;;;;;;15.20;3.30;;;;;;;10.31;95.37;102168.75;20969721;28;20040;-61
2022/10/07 06:02:43;;;;;;;13.80;2.90;;;;;;;10.35;94.66;102159.84;20960875;28;20048;-62
2022/10/07 06:13:07;;;;;;;12.55;4.03;;;;;;;10.37;95.64;102168.47;20932123;28;20053;-62
2022/10/07 06:23:29;;;;;;;15.77;3.63;;;;;;;10.61;94.70;102158.69;20973393;28;20041;-62
2022/10/07 06:33:51;;;;;;;19.88;3.53;;;;;;;10.67;94.68;102152.38;20969421;28;20036;-62
2022/10/07 06:44:13;;;;;;;21.55;3.00;;;;;;;10.88;94.25;102157.47;20956297;28;20052;-61
2022/10/07 06:54:36;;;;;;;11.90;3.40;;;;;;;11.05;94.35;102162.78;20953936;28;20044;-61
2022/10/07 07:04:58;;;;;;;14.10;3.67;;;;;;;11.15;94.07;102166.66;20958958;28;20040;-62
2022/10/07 07:15:20;;;;;;;15.52;3.25;;;;;;;11.37;94.51;102162.13;20960525;28;20055;-62
2022/10/07 07:25:44;;;;;;;11.70;3.33;;;;;;;11.60;93.18;102144.50;20949880;28;20048;-62
2022/10/07 07:36:15;;;;;;;13.73;3.30;;;;;;;11.81;92.53;102138.25;20955900;28;20040;-62
2022/10/07 07:46:43;;;;;;;13.93;3.13;;;;;;;11.99;92.95;102136.50;20952776;28;20055;-63
2022/10/07 07:57:04;;;;;;;14.05;2.85;;;;;;;12.25;91.80;102133.44;20959760;28;20119;-64
2022/10/07 08:07:26;;;;;;;14.80;2.97;;;;;;;12.54;89.89;102126.63;20982098;28;20052;-63
2022/10/07 08:17:48;;;;;;;16.43;2.87;;;;;;;12.70;89.37;102116.22;20960038;28;20044;-64
2022/10/07 08:28:10;;;;;;;17.67;2.80;;;;;;;12.97;88.24;102118.22;20949889;28;20060;-63
2022/10/07 08:38:37;;;;;;;19.98;2.75;;;;;;;13.10;87.83;102100.94;20949226;28;20052;-64
2022/10/07 08:49:04;;;;;;;11.93;2.55;;;;;;;13.35;86.98;102096.06;20948579;28;20079;-63
2022/10/07 08:59:29;;;;;;;16.13;2.78;;;;;;;13.57;84.87;102086.03;20950643;28;20142;-61
2022/10/07 09:10:24;;;;;;;12.50;2.30;;;;;;;13.67;83.91;102071.50;20981276;28;20044;-63
2022/10/07 09:20:52;;;;;;;9.68;2.25;;;;;;;13.96;83.59;102068.03;20942231;28;20658;-63
2022/10/07 09:31:15;;;;;;;14.82;2.42;;;;;;;14.15;83.84;102052.91;20962946;28;20082;-64
2022/10/07 09:41:37;;;;;;;18.45;2.10;;;;;;;14.64;81.24;102048.06;20953550;28;20053;-64
2022/10/07 09:52:22;;;;;;;13.55;2.10;;;;;;;14.92;78.89;102034.91;20965002;28;20094;-62
2022/10/07 10:02:48;;;;;;;11.00;1.67;;;;;;;15.05;77.81;102020.06;20977687;28;20481;-62
2022/10/07 10:13:42;;;;;;;13.85;2.42;;;;;;;15.32;76.51;102005.16;20968801;28;20049;-63
2022/10/07 10:24:09;;;;;;;13.05;2.50;;;;;;;15.62;75.97;101998.75;20964950;28;20424;-64
2022/10/07 10:35:07;;;;;;;11.88;2.13;;;;;;;15.67;75.83;101982.66;20968902;28;20593;-65
2022/10/07 10:45:50;;;;;;;14.30;1.90;;;;;;;16.01;75.70;101966.28;20963699;28;20037;-64
2022/10/07 10:56:34;;;;;;;13.55;2.17;;;;;;;16.31;73.64;101951.00;20956379;28;20052;-63
2022/10/07 11:07:12;;;;;;;12.15;1.83;;;;;;;16.18;74.69;101934.34;20948514;28;20098;-64
2022/10/07 11:17:36;;;;;;;11.43;1.83;;;;;;;16.28;73.64;101919.63;20963499;28;20060;-64
2022/10/07 11:28:10;;;;;;;8.27;1.70;;;;;;;16.75;72.62;101900.31;20965991;28;20044;-63
2022/10/07 11:38:37;;;;;;;14.52;2.28;;;;;;;16.85;72.92;101885.53;20964711;28;20151;-62
2022/10/07 11:49:09;;;;;;;12.65;1.77;;;;;;;16.99;72.12;101872.19;20956395;28;20044;-64
2022/10/07 11:59:44;;;;;;;13.38;2.22;;;;;;;16.80;72.36;101849.97;20958739;28;20056;-64
2022/10/07 12:10:17;;;;;;;13.93;2.15;;;;;;;17.12;72.37;101833.41;20948645;28;20053;-62
2022/10/07 12:20:49;;;;;;;6.55;2.10;;;;;;;17.22;71.65;101826.47;20961644;28;20504;-64
2022/10/07 12:31:13;;;;;;;12.38;1.88;;;;;;;17.32;70.80;101795.84;20959472;28;20045;-64
2022/10/07 12:41:35;;;;;;;11.90;2.03;;;;;;;17.44;70.34;101794.94;20950102;28;20036;-64
2022/10/07 12:52:11;;;;;;;10.07;1.90;;;;;;;17.59;69.20;101777.91;20957058;28;20044;-64
2022/10/07 13:02:35;;;;;;;10.82;1.63;;;;;;;17.44;70.79;101752.75;20949584;28;20064;-64
2022/10/07 13:13:42;;;;;;;10.50;1.70;;;;;;;17.40;69.01;101751.31;20957991;28;20044;-63
2022/10/07 13:24:04;;;;;;;10.15;1.35;;;;;;;17.25;70.76;101747.19;20951957;28;20048;-62
2022/10/07 13:34:27;;;;;;;6.45;1.40;;;;;;;17.39;70.32;101733.81;20972132;28;20061;-62
2022/10/07 13:44:49;;;;;;;8.05;1.35;;;;;;;17.67;68.82;101717.47;20971331;28;20044;-62
2022/10/07 13:55:30;;;;;;;9.93;1.63;;;;;;;17.64;70.71;101707.16;20982772;28;20045;-62
2022/10/07 14:05:52;;;;;;;5.65;1.13;;;;;;;17.50;71.32;101683.69;20963530;28;20036;-64
2022/10/07 14:16:21;;;;;;;9.07;1.40;;;;;;;17.49;70.83;101676.75;20964996;28;20037;-65
2022/10/07 14:26:44;;;;;;;6.38;1.00;;;;;;;17.44;71.80;101657.84;20965825;28;20139;-65
2022/10/07 14:37:18;;;;;;;11.32;1.75;;;;;;;17.43;69.68;101645.63;20957978;28;20047;-66
2022/10/07 14:47:40;;;;;;;9.18;1.50;;;;;;;17.30;70.99;101642.28;20972194;28;20056;-66
2022/10/07 14:58:02;;;;;;;7.82;1.38;;;;;;;17.22;71.26;101631.47;20939029;28;20098;-65
2022/10/07 15:08:24;;;;;;;7.05;1.40;;;;;;;17.23;72.11;101617.31;20960309;28;20043;-67
2022/10/07 15:18:46;;;;;;;11.20;1.52;;;;;;;17.25;71.47;101602.22;20979052;28;20056;-65
2022/10/07 15:29:14;;;;;;;7.80;1.42;;;;;;;17.13;74.74;101595.31;20963456;28;20045;-65
2022/10/07 15:39:35;;;;;;;9.30;1.67;;;;;;;17.06;72.88;101570.38;20957892;28;20102;-64
2022/10/07 15:50:00;;;;;;;5.43;1.25;;;;;;;17.02;73.37;101573.41;20949685;28;20044;-65
2022/10/07 16:00:21;;;;;;;5.43;1.17;;;;;;;16.96;72.71;101587.91;20972511;28;20075;-65
2022/10/07 16:10:43;;;;;;;7.65;1.40;;;;;;;16.84;73.60;101588.84;20956560;28;20094;-66
2022/10/07 16:21:06;;;;;;;8.00;1.60;;;;;;;16.74;74.75;101572.06;20955370;28;20040;-65
2022/10/07 16:31:28;;;;;;;6.13;1.40;;;;;;;16.58;76.69;101571.63;20944486;28;20048;-66
2022/10/07 16:41:51;;;;;;;10.88;1.58;;;;;;;16.57;76.16;101559.41;20947580;28;20040;-66
2022/10/07 16:52:12;;;;;;;8.77;1.67;;;;;;;16.52;75.66;101551.03;20938445;28;20040;-64
2022/10/07 17:02:34;;;;;;;10.15;1.65;;;;;;;16.31;76.95;101540.47;20943659;28;20044;-66
2022/10/07 17:12:57;;;;;;;10.52;1.40;;;;;;;16.16;77.71;101536.34;20945785;28;20041;-65
2022/10/07 17:23:24;;;;;;;7.95;1.38;;;;;;;16.26;75.70;101537.34;20940529;28;21597;-65
2022/10/07 17:33:46;;;;;;;4.68;1.70;;;;;;;16.13;76.37;101518.19;20945681;28;20070;-65
2022/10/07 17:44:10;;;;;;;9.27;1.45;;;;;;;15.92;76.82;101538.22;20943931;28;20074;-66
2022/10/07 17:54:32;;;;;;;15.90;1.67;;;;;;;15.84;78.54;101530.06;20961313;28;20079;-66
2022/10/07 18:04:53;;;;;;;6.90;1.73;;;;;;;15.54;79.18;101532.34;20955504;28;20052;-65
2022/10/07 18:15:18;;;;;;;7.95;1.58;;;;;;;15.36;80.29;101525.81;20956283;28;20378;-65
2022/10/07 18:25:39;;;;;;;12.02;1.80;;;;;;;15.13;81.82;101510.00;20930520;28;20201;-64
2022/10/07 18:36:02;;;;;;;13.52;2.35;;;;;;;14.99;81.71;101503.09;20936133;28;20045;-65
2022/10/07 18:46:24;;;;;;;14.25;2.72;;;;;;;14.82;83.05;101497.41;20953799;28;20048;-64
2022/10/07 18:56:46;;;;;;;;;;;;;;;14.78;82.07;101493.31;20940390;28;20044;-64
2022/10/07 19:07:08;;;;;;;10.20;1.95;;;;;;;14.50;83.60;101483.94;20924231;28;19970;-64
2022/10/07 19:17:29;;;;;;;;;;;;;;;14.69;82.01;101486.94;20949521;28;20451;-64
2022/10/07 19:27:51;;;;;;;11.30;1.98;;;;;;;14.59;81.25;101478.03;20943726;28;19924;-64
2022/10/07 19:38:12;;;;;;;;;;;;;;;14.58;81.33;101480.78;20941889;28;20044;-63
2022/10/07 19:48:35;;;;;;;9.63;1.80;;;;;;;14.63;80.21;101468.16;20950201;28;20424;-64
2022/10/07 19:58:59;;;;;;;10.65;1.75;;;;;;;14.58;81.12;101457.16;20939856;28;20378;-64
2022/10/07 20:09:21;;;;;;;10.02;2.17;;;;;;;14.29;83.71;101449.63;20942994;28;20036;-63
2022/10/07 20:19:42;;;;;;;9.68;1.95;;;;;;;14.37;83.11;101434.22;20943863;28;20059;-63
2022/10/07 20:30:08;;;;;;;13.23;1.88;;;;;;;14.42;80.64;101429.47;20937874;28;20036;-63
2022/10/07 20:51:17;;;;;;;11.55;1.92;;;;;;;14.48;80.97;101401.03;20954410;28;20044;-64
2022/10/07 21:01:39;;;;;;;13.02;2.50;;;;;;;14.43;79.55;101383.94;20956088;28;20057;-65
2022/10/07 21:12:06;;;;;;;13.38;2.22;;;;;;;14.28;80.09;101379.78;20959555;28;20094;-65
2022/10/07 21:22:27;;;;;;;8.07;1.70;;;;;;;14.32;78.79;101362.88;20956732;28;20052;-67
2022/10/07 21:32:49;;;;;;;5.47;1.52;;;;;;;14.32;79.05;101349.75;20957273;28;20101;-63
2022/10/07 21:43:10;;;;;;;10.35;2.10;;;;;;;14.27;79.36;101330.88;20960859;28;20059;-65
2022/10/07 21:53:32;;;;;;;12.73;2.47;;;;;;;14.17;79.56;101329.88;20983543;28;20061;-64
2022/10/07 22:04:00;;;;;;;11.23;1.75;;;;;;;14.26;79.34;101322.19;20973174;28;20049;-64
2022/10/07 22:14:22;;;;;;;9.80;2.25;;;;;;;14.11;80.37;101314.56;20970485;28;20052;-64
2022/10/07 22:24:43;;;;;;;14.63;2.05;;;;;;;14.14;79.86;101311.72;20969569;28;20468;-63
2022/10/07 22:45:58;;;;;;;11.90;2.03;;;;;;;13.94;81.48;101299.19;20992193;28;20051;-64
2022/10/07 22:56:22;;;;;;;12.45;2.33;;;;;;;13.81;82.67;101298.38;20979173;28;20096;-64
2022/10/07 23:06:43;;;;;;;9.60;2.17;;;;;;;13.77;82.91;101289.88;20968682;28;20056;-64
2022/10/07 23:17:04;;;;;;;17.35;2.28;;;;;;;13.53;83.78;101285.53;20968017;28;20041;-64
2022/10/07 23:27:26;;;;;;;12.05;2.00;;;;;;;13.49;83.62;101276.22;20964749;28;20052;-64
2022/10/07 23:37:47;;;;;;;13.80;2.20;;;;;;;13.45;84.08;101264.25;20963643;28;20048;-63
2022/10/07 23:48:09;;;;;;;12.77;2.33;;;;;;;13.46;84.19;101252.03;20966297;28;20049;-64
2022/10/07 23:58:32;;;;;;;10.38;2.17;;;;;;;13.43;84.31;101254.84;20961661;28;20177;-64
